Alden, Michigan
Current Conditions -  °F | °C
As of 12:38 PM on Wednesday 26 Nov 2014 (Local Time) from KACB Reporting Station
Light Snow Light Snow  
Wind Chill: 28°   Ceiling: 3100
Heat Index: 28°   Visibility: 10mi
Dew Point: 22°   Wind: 0mph
Humidity: 80%   Direction: NA
Pressure: 30.17"   Gusts: NA
Location:  44.88°N, 85.28°W
Report Text: KACB 261738Z AUTO 00000KT 10SM -SN OVC031 M02/M06 A3017 RMK AO2 T10251056
Loading
Personal Weather Stations






























Interactive Weather Map New forecast layout! Learn more

10-Day Weather Forecast

Advertisements
Track Severe Weather on mobile